Time;durP1;ratioP1;P1;durP2;ratioP2;P2;SDS_P1;SDS_P2;PMS_P1;PMS_P2;Temp;Humidity;BMP_temperature;BMP_pressure;BME280_temperature;BME280_humidity;BME280_pressure;Samples;Min_cycle;Max_cycle;Signal;HPM_P1;HPM_P2
2024/01/25 00:00:26;;;;;;;4.57;0.90;;;;;;;7.56;78.44;150571.84;10651350;27;20062;-74
2024/01/25 00:05:28;;;;;;;6.80;1.20;;;;;;;7.60;77.96;150582.16;10671228;27;20039;-73
2024/01/25 00:10:30;;;;;;;4.05;1.20;;;;;;;7.47;79.10;150549.94;10657938;27;20123;-74
2024/01/25 00:15:32;;;;;;;7.50;1.30;;;;;;;7.52;78.30;150561.53;10676295;27;20494;-74
2024/01/25 00:20:34;;;;;;;3.75;0.90;;;;;;;7.54;78.23;150568.00;10676903;27;20391;-74
2024/01/25 00:25:35;;;;;;;5.53;1.25;;;;;;;7.61;77.86;150583.44;10676326;27;20038;-74
2024/01/25 00:30:37;;;;;;;3.92;0.95;;;;;;;7.56;77.92;150573.13;10675872;27;20043;-74
2024/01/25 00:35:41;;;;;;;7.65;1.30;;;;;;;7.50;78.12;150557.69;10675729;27;20043;-74
2024/01/25 00:40:43;;;;;;;9.40;1.27;;;;;;;7.55;77.16;150569.28;10675790;27;20042;-74
2024/01/25 00:45:45;;;;;;;4.85;1.27;;;;;;;7.52;77.41;150561.53;10675234;27;20039;-74
2024/01/25 00:50:47;;;;;;;6.50;2.00;;;;;;;7.66;75.77;150596.31;10675149;27;20042;-74
2024/01/25 00:55:49;;;;;;;4.65;1.50;;;;;;;7.72;75.42;150613.09;10656572;27;20035;-74
2024/01/25 01:00:52;;;;;;;10.32;2.58;;;;;;;7.60;75.86;150582.16;10674002;27;20414;-74
2024/01/25 01:05:54;;;;;;;4.00;1.23;;;;;;;7.70;75.60;150606.63;10673961;27;20490;-74
2024/01/25 01:10:56;;;;;;;7.03;1.23;;;;;;;7.58;76.38;150578.31;10673703;27;20485;-74
2024/01/25 01:15:58;;;;;;;5.50;1.40;;;;;;;7.62;76.54;150586.06;10654827;27;20045;-73
2024/01/25 01:20:59;;;;;;;4.93;1.83;;;;;;;7.66;76.12;150596.31;10655668;27;20494;-73
2024/01/25 01:26:01;;;;;;;7.45;1.30;;;;;;;7.63;75.92;150588.63;10673843;27;20027;-74
2024/01/25 01:31:03;;;;;;;8.63;1.40;;;;;;;7.49;76.88;150553.84;10655841;27;20102;-74
2024/01/25 01:36:05;;;;;;;7.93;1.52;;;;;;;7.50;76.92;150557.69;10654743;27;20091;-74
2024/01/25 01:41:10;;;;;;;7.90;1.33;;;;;;;7.59;76.05;150579.59;10672993;27;20042;-74
2024/01/25 01:46:36;;;;;;;7.78;1.58;;;;;;;7.45;77.11;150543.53;10672638;27;20113;-73
2024/01/25 01:51:39;;;;;;;6.35;1.45;;;;;;;7.62;75.64;150586.06;10673627;27;20113;-75
2024/01/25 01:56:41;;;;;;;5.20;1.25;;;;;;;7.59;75.94;150579.59;10655899;27;20043;-74
2024/01/25 02:01:43;;;;;;;6.13;1.33;;;;;;;7.65;75.38;150593.75;10673430;27;20413;-74
2024/01/25 02:06:45;;;;;;;8.73;1.60;;;;;;;7.63;75.52;150588.63;10672476;27;20043;-73
2024/01/25 02:11:47;;;;;;;7.30;1.35;;;;;;;7.51;76.05;150558.97;10671267;27;20043;-75
2024/01/25 02:16:49;;;;;;;6.28;1.33;;;;;;;7.45;76.86;150544.81;10671963;27;20421;-74
2024/01/25 02:21:53;;;;;;;9.27;2.10;;;;;;;7.45;76.16;150544.81;10653664;27;20045;-74
2024/01/25 02:26:55;;;;;;;4.70;1.50;;;;;;;7.45;76.00;150543.53;10670853;27;20045;-74
2024/01/25 02:31:58;;;;;;;6.25;1.27;;;;;;;7.42;76.09;150537.06;10635266;27;20129;-73
2024/01/25 02:36:59;;;;;;;8.82;1.45;;;;;;;7.46;75.96;150547.38;10671391;27;20046;-73
2024/01/25 02:42:01;;;;;;;4.78;1.13;;;;;;;7.53;75.45;150565.44;10670745;27;20042;-74
2024/01/25 02:47:03;;;;;;;9.75;1.23;;;;;;;7.49;75.90;150555.13;10670687;27;20049;-75
2024/01/25 02:52:05;;;;;;;7.13;1.02;;;;;;;7.47;75.93;150549.94;10670407;27;20041;-75
2024/01/25 02:57:07;;;;;;;6.82;1.27;;;;;;;7.46;76.72;150546.09;10669712;27;20045;-74
2024/01/25 03:02:09;;;;;;;6.85;1.10;;;;;;;7.47;76.31;150549.94;10670081;27;20038;-74
2024/01/25 03:07:11;;;;;;;5.70;1.73;;;;;;;7.49;75.88;150553.84;10669492;27;20067;-74
2024/01/25 03:12:13;;;;;;;4.72;1.10;;;;;;;7.50;75.60;150557.69;10652022;27;20042;-75
2024/01/25 03:17:15;;;;;;;6.75;1.67;;;;;;;7.50;75.77;150556.41;10669843;27;20062;-75
2024/01/25 03:22:16;;;;;;;3.80;1.17;;;;;;;7.48;75.24;150552.56;10670215;27;20058;-74
2024/01/25 03:27:18;;;;;;;6.35;1.38;;;;;;;7.48;74.69;150552.56;10652244;27;20073;-74
2024/01/25 03:32:20;;;;;;;7.47;1.23;;;;;;;7.31;75.72;150510.03;10670073;27;20498;-74
2024/01/25 03:37:22;;;;;;;10.63;2.13;;;;;;;7.26;75.57;150497.19;10669578;27;20074;-74
2024/01/25 03:42:24;;;;;;;6.85;1.48;;;;;;;7.39;74.76;150529.34;10673405;27;20065;-75
2024/01/25 03:47:25;;;;;;;8.90;1.60;;;;;;;7.27;74.82;150498.47;10659419;27;20125;-75
2024/01/25 03:52:29;;;;;;;8.55;1.52;;;;;;;7.27;75.16;150498.47;10657882;27;20050;-75
2024/01/25 03:57:31;;;;;;;10.73;2.13;;;;;;;7.35;74.65;150519.06;10677311;27;20447;-77
2024/01/25 04:02:33;;;;;;;6.28;1.08;;;;;;;7.27;75.14;150499.75;10678736;27;20494;-74
2024/01/25 04:07:36;;;;;;;5.40;1.30;;;;;;;7.34;74.61;150517.75;10678403;27;20046;-74
2024/01/25 04:12:39;;;;;;;7.07;1.60;;;;;;;7.21;75.06;150484.25;10677033;27;20038;-74
2024/01/25 04:17:41;;;;;;;6.40;1.30;;;;;;;7.28;74.70;150501.03;10676816;27;20049;-75
2024/01/25 04:22:43;;;;;;;4.82;1.20;;;;;;;7.29;75.11;150503.59;10676375;27;20034;-74
2024/01/25 04:27:44;;;;;;;5.13;1.27;;;;;;;7.28;75.22;150501.03;10676615;27;20043;-73
2024/01/25 04:32:46;;;;;;;6.15;1.70;;;;;;;7.23;75.89;150488.16;10675894;27;20043;-75
2024/01/25 04:37:48;;;;;;;7.65;1.35;;;;;;;7.16;76.58;150471.38;10656542;27;20049;-74
2024/01/25 04:42:50;;;;;;;8.93;2.08;;;;;;;7.13;76.10;150462.34;10674721;27;20055;-76
2024/01/25 04:47:51;;;;;;;5.88;1.52;;;;;;;7.04;76.95;150441.81;10674793;27;20042;-74
2024/01/25 04:52:53;;;;;;;4.15;1.10;;;;;;;7.05;76.96;150443.09;10674534;27;20478;-75
2024/01/25 04:57:55;;;;;;;8.02;1.25;;;;;;;7.04;76.97;150441.81;10674311;27;20039;-74
2024/01/25 05:02:57;;;;;;;10.65;1.17;;;;;;;7.01;77.15;150434.06;10656325;27;20042;-75
2024/01/25 05:07:59;;;;;;;7.57;1.35;;;;;;;7.06;76.61;150446.94;10675352;27;20046;-74
2024/01/25 05:13:01;;;;;;;8.48;1.63;;;;;;;7.19;75.36;150477.84;10654905;27;20042;-75
2024/01/25 05:18:03;;;;;;;5.15;1.55;;;;;;;6.96;77.29;150421.19;10675489;27;20421;-74
2024/01/25 05:23:05;;;;;;;6.68;1.52;;;;;;;7.03;77.03;150439.19;10675281;27;20042;-75
2024/01/25 05:28:07;;;;;;;7.03;1.35;;;;;;;6.94;76.59;150416.00;10675060;27;20126;-74
2024/01/25 05:33:09;;;;;;;4.95;1.63;;;;;;;7.07;75.96;150449.50;10674578;27;20118;-75
2024/01/25 05:38:11;;;;;;;5.93;1.15;;;;;;;7.15;75.55;150467.53;10674351;27;20118;-75
2024/01/25 05:43:13;;;;;;;7.25;1.67;;;;;;;7.03;75.30;150437.91;10654816;27;20066;-74
2024/01/25 05:48:15;;;;;;;5.75;1.30;;;;;;;7.06;74.70;150445.66;10655203;27;20133;-75
2024/01/25 05:53:19;;;;;;;9.18;1.55;;;;;;;7.03;75.21;150437.91;10672477;27;20091;-75
2024/01/25 05:58:21;;;;;;;8.88;1.60;;;;;;;7.10;74.87;150455.94;10672099;27;20078;-74
2024/01/25 06:03:23;;;;;;;5.75;1.75;;;;;;;7.05;75.51;150444.38;10671421;27;20039;-75
2024/01/25 06:08:24;;;;;;;5.15;1.20;;;;;;;7.02;75.43;150436.63;10673018;27;20049;-74
2024/01/25 06:13:26;;;;;;;4.45;0.98;;;;;;;7.06;75.28;150446.94;10671908;27;20042;-75
2024/01/25 06:18:28;;;;;;;7.63;1.13;;;;;;;6.89;76.82;150403.16;10653832;27;20047;-75
2024/01/25 06:23:30;;;;;;;5.85;1.30;;;;;;;6.83;78.64;150389.00;10673264;27;20047;-75
2024/01/25 06:28:32;;;;;;;6.35;1.15;;;;;;;6.87;78.47;150396.75;10636244;27;20049;-75
2024/01/25 06:33:34;;;;;;;5.53;1.25;;;;;;;6.79;77.74;150377.41;10672419;27;20047;-74
2024/01/25 06:38:36;;;;;;;8.57;2.75;;;;;;;6.91;76.92;150407.03;10653277;27;20049;-75
2024/01/25 06:43:39;;;;;;;7.18;1.70;;;;;;;6.80;76.88;150379.97;10670949;27;20035;-74
2024/01/25 06:48:41;;;;;;;9.13;2.22;;;;;;;6.85;75.97;150391.56;10672895;27;20042;-76
2024/01/25 06:53:43;;;;;;;7.45;1.20;;;;;;;6.83;76.28;150387.72;10671645;27;20039;-75
2024/01/25 06:58:45;;;;;;;3.30;1.05;;;;;;;6.81;75.85;150382.53;10670149;27;20035;-74
2024/01/25 07:03:50;;;;;;;4.88;1.13;;;;;;;6.77;76.71;150372.22;10669969;27;20051;-74
2024/01/25 07:08:53;;;;;;;4.47;1.27;;;;;;;6.68;77.23;150350.34;10671169;27;20047;-75
2024/01/25 07:13:55;;;;;;;5.80;1.50;;;;;;;6.82;75.75;150385.16;10652506;27;20525;-75
2024/01/25 07:18:57;;;;;;;5.80;1.40;;;;;;;6.81;75.38;150383.81;10678545;27;20113;-75
2024/01/25 07:24:02;;;;;;;12.98;1.45;;;;;;;6.73;76.46;150361.94;10678805;27;20047;-74
2024/01/25 07:29:04;;;;;;;5.07;1.30;;;;;;;6.80;75.49;150379.97;10677794;27;20046;-75
2024/01/25 07:34:06;;;;;;;5.53;1.45;;;;;;;6.69;76.40;150351.69;10659463;27;20080;-75
2024/01/25 07:39:08;;;;;;;6.85;1.70;;;;;;;6.82;75.44;150386.44;10659348;27;20050;-74
2024/01/25 07:44:10;;;;;;;6.15;3.50;;;;;;;6.91;73.94;150407.03;10659923;27;20038;-75
2024/01/25 07:49:12;;;;;;;5.22;1.80;;;;;;;6.92;74.41;150409.59;10674780;27;20041;-74
2024/01/25 07:54:14;;;;;;;6.75;1.92;;;;;;;6.91;74.82;150407.03;10677363;27;20134;-75
2024/01/25 07:59:16;;;;;;;3.53;1.63;;;;;;;6.82;75.89;150386.44;10678254;27;20042;-74
2024/01/25 08:04:18;;;;;;;6.70;1.80;;;;;;;6.80;76.34;150379.97;10676425;27;20035;-75
2024/01/25 08:09:20;;;;;;;8.60;1.70;;;;;;;6.65;77.20;150341.38;10656819;27;20499;-76
2024/01/25 08:14:22;;;;;;;4.05;1.55;;;;;;;6.78;77.05;150374.84;10674675;27;20038;-74
2024/01/25 08:19:23;;;;;;;6.47;1.70;;;;;;;6.85;76.42;150391.56;10675948;27;20042;-75
2024/01/25 08:24:25;;;;;;;10.20;1.77;;;;;;;6.74;77.72;150365.81;10675739;27;20113;-75
2024/01/25 08:29:27;;;;;;;5.65;5.05;;;;;;;6.90;77.09;150404.44;10675259;27;20407;-74
2024/01/25 08:34:29;;;;;;;12.77;3.03;;;;;;;6.90;77.07;150404.44;10656468;27;20486;-75
2024/01/25 08:39:31;;;;;;;3.95;1.52;;;;;;;6.92;77.16;150409.59;10656915;27;20116;-74
2024/01/25 08:44:33;;;;;;;11.75;1.90;;;;;;;6.94;77.26;150414.72;10675787;27;20117;-75
2024/01/25 08:49:38;;;;;;;5.90;1.27;;;;;;;6.87;77.74;150398.03;10676946;27;20060;-74
2024/01/25 08:54:41;;;;;;;7.80;1.42;;;;;;;6.96;77.48;150419.91;10676121;27;20087;-75
2024/01/25 08:59:43;;;;;;;6.53;1.55;;;;;;;7.03;77.53;150439.19;10658735;27;20043;-76
2024/01/25 09:04:45;;;;;;;14.18;6.53;;;;;;;7.04;77.02;150440.53;10680008;27;20070;-75
2024/01/25 09:09:47;;;;;;;11.68;2.20;;;;;;;7.02;77.12;150436.63;10676939;27;20070;-75
2024/01/25 09:14:49;;;;;;;9.43;3.10;;;;;;;7.06;76.94;150445.66;10675292;27;20042;-76
2024/01/25 09:19:51;;;;;;;6.55;2.15;;;;;;;7.06;76.27;150446.94;10638876;27;20047;-75
2024/01/25 09:24:53;;;;;;;5.93;1.65;;;;;;;7.13;76.52;150462.34;10672486;27;20100;-76
2024/01/25 09:29:55;;;;;;;4.32;1.25;;;;;;;7.27;76.47;150499.75;10673923;27;20039;-76
2024/01/25 09:34:57;;;;;;;5.03;1.08;;;;;;;7.19;76.24;150479.13;10676744;27;20077;-76
2024/01/25 09:39:59;;;;;;;6.28;1.48;;;;;;;7.36;75.05;150520.34;10656829;27;20039;-75
2024/01/25 09:45:05;;;;;;;10.15;1.90;;;;;;;7.38;75.42;150526.75;10675589;27;20046;-76
2024/01/25 09:50:08;;;;;;;8.80;1.63;;;;;;;7.50;74.99;150557.69;10640051;27;20149;-76
2024/01/25 09:55:17;;;;;;;5.80;1.35;;;;;;;7.49;75.23;150553.84;10676083;27;20550;-76
2024/01/25 10:00:20;;;;;;;11.85;1.80;;;;;;;7.43;75.70;150538.34;10677220;27;20130;-76
2024/01/25 10:05:34;;;;;;;10.93;1.95;;;;;;;7.44;74.77;150540.97;10677923;27;20114;-74
2024/01/25 10:10:50;;;;;;;6.47;1.63;;;;;;;7.62;74.46;150586.06;10642074;27;20135;-76
2024/01/25 10:15:51;;;;;;;6.40;2.28;;;;;;;7.51;74.83;150558.97;10658203;27;20045;-75
2024/01/25 10:20:54;;;;;;;4.45;1.77;;;;;;;7.46;75.55;150547.38;10675132;27;20046;-76
2024/01/25 10:25:56;;;;;;;3.80;1.73;;;;;;;7.49;75.64;150553.84;10639076;27;20047;-76
2024/01/25 10:31:04;;;;;;;6.35;2.33;;;;;;;7.31;76.68;150508.75;10656466;27;20081;-76
2024/01/25 10:36:10;;;;;;;7.07;1.20;;;;;;;7.32;76.22;150511.31;10655513;27;20039;-76
2024/01/25 10:41:14;;;;;;;6.03;1.33;;;;;;;7.28;76.58;150501.03;10655553;27;20095;-77
2024/01/25 10:46:17;;;;;;;11.32;3.75;;;;;;;7.53;74.81;150565.44;10673948;27;20035;-77
2024/01/25 10:51:20;;;;;;;11.02;1.88;;;;;;;7.43;75.16;150539.63;10669296;27;20486;-76
2024/01/25 10:56:22;;;;;;;5.18;1.20;;;;;;;7.48;74.51;150552.56;10670998;27;20066;-76
2024/01/25 11:01:24;;;;;;;3.20;0.98;;;;;;;7.58;72.82;150578.31;10671312;27;20043;-76
2024/01/25 11:06:27;;;;;;;6.22;1.15;;;;;;;7.55;72.71;150569.28;10672282;27;20038;-77
2024/01/25 11:11:30;;;;;;;4.20;0.93;;;;;;;7.58;72.77;150577.03;10673157;27;20049;-76
2024/01/25 11:16:34;;;;;;;3.10;1.10;;;;;;;7.61;72.39;150583.44;10673339;27;20049;-79
2024/01/25 11:21:52;;;;;;;7.68;1.08;;;;;;;7.69;72.82;150604.06;10676773;27;20077;-77
2024/01/25 11:26:55;;;;;;;9.30;1.40;;;;;;;7.90;71.48;150656.91;10676550;27;20091;-76
2024/01/25 11:31:57;;;;;;;4.35;0.90;;;;;;;7.82;72.70;150638.84;10676122;27;20069;-77
2024/01/25 11:36:59;;;;;;;4.47;1.25;;;;;;;7.59;73.10;150579.59;10656923;27;20459;-76
2024/01/25 11:42:01;;;;;;;5.72;0.95;;;;;;;7.66;74.09;150597.66;10675106;27;20049;-78
2024/01/25 11:47:04;;;;;;;3.90;0.98;;;;;;;7.99;72.05;150680.09;10674095;27;20039;-77
2024/01/25 11:52:07;;;;;;;5.50;2.00;;;;;;;7.75;73.75;150620.84;10673683;27;20122;-76
2024/01/25 11:57:09;;;;;;;7.07;1.63;;;;;;;7.56;75.60;150571.84;10672870;27;20111;-77
2024/01/25 12:02:13;;;;;;;5.47;1.20;;;;;;;7.29;77.97;150504.88;10675258;27;20043;-76
2024/01/25 12:07:15;;;;;;;5.13;1.60;;;;;;;7.44;76.96;150542.25;10680876;27;20039;-76
2024/01/25 12:12:17;;;;;;;5.53;2.50;;;;;;;7.67;76.60;150600.22;10681928;27;20549;-77
2024/01/25 12:17:19;;;;;;;3.45;1.50;;;;;;;7.67;77.16;150598.94;10682637;27;20046;-77
2024/01/25 12:22:22;;;;;;;3.10;1.55;;;;;;;7.77;76.68;150625.97;10680705;27;20041;-77
2024/01/25 12:27:25;;;;;;;7.43;2.47;;;;;;;7.81;75.31;150635.00;10661586;27;20405;-76
2024/01/25 12:32:27;;;;;;;6.32;1.98;;;;;;;7.90;74.70;150658.19;10679849;27;20050;-77
2024/01/25 12:37:29;;;;;;;7.18;1.10;;;;;;;7.93;73.49;150664.63;10678698;27;20042;-76
2024/01/25 12:42:31;;;;;;;3.10;1.15;;;;;;;7.90;74.15;150658.19;10679174;27;20043;-75
2024/01/25 12:47:34;;;;;;;4.13;1.40;;;;;;;8.15;73.70;150720.06;10660120;27;20433;-76
2024/01/25 12:52:36;;;;;;;1.27;0.93;;;;;;;8.16;73.23;150723.91;10680867;27;20050;-76
2024/01/25 12:57:37;;;;;;;3.55;0.80;;;;;;;8.06;73.64;150699.44;10679253;27;20047;-77
2024/01/25 13:02:39;;;;;;;2.97;0.98;;;;;;;7.95;74.59;150671.06;10660415;27;20046;-75
2024/01/25 13:07:42;;;;;;;3.28;1.25;;;;;;;7.89;74.08;150655.59;10643638;27;20046;-77
2024/01/25 13:12:43;;;;;;;3.75;0.82;;;;;;;7.92;72.18;150663.31;10660148;27;20127;-75
2024/01/25 13:17:45;;;;;;;3.90;1.02;;;;;;;7.97;73.24;150676.22;10677955;27;20030;-76
2024/01/25 13:22:50;;;;;;;6.28;1.00;;;;;;;7.92;72.81;150663.31;10676345;27;20058;-76
2024/01/25 13:27:52;;;;;;;5.85;0.73;;;;;;;7.87;73.80;150650.44;10656856;27;20395;-76
2024/01/25 13:32:54;;;;;;;5.82;1.35;;;;;;;8.01;73.44;150685.22;10677412;27;20103;-77
2024/01/25 13:38:00;;;;;;;6.60;1.70;;;;;;;7.87;74.25;150650.44;10679375;27;20126;-77
2024/01/25 13:43:02;;;;;;;6.18;1.75;;;;;;;7.87;73.26;150650.44;10658498;27;20074;-76
2024/01/25 13:48:04;;;;;;;6.47;1.33;;;;;;;7.89;73.15;150655.59;10676428;27;20045;-78
2024/01/25 13:53:06;;;;;;;24.45;5.95;;;;;;;7.77;74.27;150625.97;10676777;27;20042;-77
2024/01/25 13:58:08;;;;;;;7.45;1.73;;;;;;;7.70;74.24;150607.97;10656165;27;20087;-75
2024/01/25 14:03:10;;;;;;;7.85;1.05;;;;;;;7.73;73.60;150615.66;10674385;27;20079;-77
2024/01/25 14:08:12;;;;;;;3.80;1.15;;;;;;;7.90;72.63;150658.19;10674819;27;20034;-76
2024/01/25 14:13:14;;;;;;;4.80;1.38;;;;;;;7.89;73.00;150654.31;10675301;27;20095;-77
2024/01/25 14:18:16;;;;;;;3.47;1.10;;;;;;;7.59;73.01;150580.88;10675812;27;20402;-76
2024/01/25 14:23:19;;;;;;;6.72;0.77;;;;;;;7.58;73.63;150578.31;10674200;27;20047;-77
2024/01/25 14:28:20;;;;;;;5.60;0.77;;;;;;;7.70;73.14;150607.97;10673266;27;20062;-75
2024/01/25 14:33:22;;;;;;;4.60;1.20;;;;;;;7.55;73.42;150570.56;10674094;27;20113;-75
2024/01/25 14:38:24;;;;;;;4.63;1.13;;;;;;;7.34;75.06;150516.44;10655257;27;20050;-76
2024/01/25 14:43:26;;;;;;;3.40;1.00;;;;;;;7.44;73.71;150540.97;10672381;27;20043;-76
2024/01/25 14:48:28;;;;;;;2.65;0.70;;;;;;;7.37;73.96;150522.91;10672873;27;20039;-76
2024/01/25 14:53:30;;;;;;;8.25;2.03;;;;;;;7.23;74.35;150488.16;10672603;27;20057;-76
2024/01/25 14:58:32;;;;;;;3.28;1.30;;;;;;;7.45;73.29;150544.81;10672143;27;20047;-76
2024/01/25 15:03:33;;;;;;;3.47;0.82;;;;;;;7.22;74.37;150485.59;10671919;27;20038;-76
2024/01/25 15:08:35;;;;;;;3.78;1.13;;;;;;;7.12;75.29;150461.06;10674235;27;20078;-77
2024/01/25 15:13:37;;;;;;;1.08;0.50;;;;;;;7.03;75.59;150439.19;10673508;27;20080;-76
2024/01/25 15:18:39;;;;;;;5.63;0.93;;;;;;;7.00;76.04;150431.50;10673020;27;20456;-76
2024/01/25 15:23:41;;;;;;;3.78;1.05;;;;;;;7.03;75.58;150439.19;10673460;27;20509;-76
2024/01/25 15:28:45;;;;;;;3.53;1.20;;;;;;;6.99;75.63;150428.88;10672687;27;20099;-76
2024/01/25 15:33:47;;;;;;;8.52;1.20;;;;;;;6.96;75.61;150419.91;10655809;27;20680;-76
2024/01/25 15:38:50;;;;;;;3.63;1.10;;;;;;;6.81;76.20;150382.53;10679263;27;20087;-75
2024/01/25 15:43:51;;;;;;;5.28;1.65;;;;;;;6.89;75.61;150403.16;10680529;27;20035;-76
2024/01/25 15:48:54;;;;;;;4.65;1.13;;;;;;;6.95;75.10;150418.63;10680174;27;20102;-77
2024/01/25 15:53:56;;;;;;;3.08;0.95;;;;;;;6.72;76.10;150360.66;10660019;27;20124;-77
2024/01/25 15:58:58;;;;;;;5.95;1.10;;;;;;;6.81;75.14;150382.53;10679739;27;20038;-77
2024/01/25 16:04:00;;;;;;;3.65;0.90;;;;;;;6.79;75.10;150377.41;10679175;27;20061;-75
2024/01/25 16:09:03;;;;;;;3.95;0.75;;;;;;;6.86;74.31;150395.41;10660202;27;20043;-75
2024/01/25 16:14:05;;;;;;;3.45;0.77;;;;;;;6.89;74.33;150403.16;10658398;27;20051;-76
2024/01/25 16:19:07;;;;;;;7.10;0.98;;;;;;;6.87;74.43;150396.75;10679368;27;20070;-76
2024/01/25 16:24:09;;;;;;;3.95;0.80;;;;;;;6.73;75.06;150363.25;10679190;27;20035;-77
2024/01/25 16:29:11;;;;;;;4.35;1.05;;;;;;;6.83;74.69;150387.72;10677492;27;20046;-75
2024/01/25 16:34:14;;;;;;;3.13;0.88;;;;;;;6.75;74.97;150367.09;10658587;27;20095;-75
2024/01/25 16:39:16;;;;;;;3.17;1.00;;;;;;;6.71;75.33;150356.81;10664693;27;20035;-76
2024/01/25 16:44:18;;;;;;;1.98;0.65;;;;;;;6.69;75.17;150351.69;10681840;27;20122;-77
2024/01/25 16:49:19;;;;;;;4.05;0.90;;;;;;;6.51;76.16;150306.63;10683631;27;20130;-76
2024/01/25 16:54:21;;;;;;;7.22;1.25;;;;;;;6.63;75.52;150336.19;10680877;27;20401;-76
2024/01/25 16:59:23;;;;;;;4.78;0.93;;;;;;;6.55;75.97;150316.88;10662765;27;20451;-75
2024/01/25 17:04:25;;;;;;;4.05;0.90;;;;;;;6.36;77.21;150269.28;10683308;27;20043;-78
2024/01/25 17:09:27;;;;;;;3.58;1.10;;;;;;;6.41;76.80;150280.84;10687443;27;20039;-77
2024/01/25 17:14:29;;;;;;;4.45;0.80;;;;;;;6.28;77.19;150248.69;10683728;27;20035;-77
2024/01/25 17:19:31;;;;;;;3.20;1.00;;;;;;;6.24;77.74;150239.72;10681999;27;20126;-77
2024/01/25 17:24:33;;;;;;;2.42;0.60;;;;;;;6.25;77.04;150242.28;10681826;27;20038;-78
2024/01/25 17:29:35;;;;;;;6.18;1.08;;;;;;;5.93;78.82;150161.22;10682369;27;20395;-77
2024/01/25 17:34:36;;;;;;;3.35;0.80;;;;;;;6.12;78.08;150207.53;10660045;27;20056;-77
2024/01/25 17:39:38;;;;;;;3.15;1.10;;;;;;;5.90;78.89;150153.44;10677058;27;20046;-77
2024/01/25 17:44:40;;;;;;;5.22;0.88;;;;;;;5.94;79.17;150163.78;10679212;27;20417;-77
2024/01/25 17:49:42;;;;;;;5.97;1.10;;;;;;;6.00;79.10;150179.22;10676181;27;20046;-77
2024/01/25 17:54:44;;;;;;;3.50;0.80;;;;;;;5.84;79.97;150137.97;10674524;27;20121;-76
2024/01/25 17:59:46;;;;;;;7.05;1.42;;;;;;;5.75;80.79;150116.09;10675352;27;20113;-78
2024/01/25 18:04:48;;;;;;;5.05;1.52;;;;;;;5.94;79.68;150162.50;10660045;27;20039;-78
2024/01/25 18:09:51;;;;;;;5.47;1.50;;;;;;;5.94;80.28;150162.50;10659349;27;20126;-77
2024/01/25 18:14:55;;;;;;;3.50;0.90;;;;;;;5.94;79.98;150162.50;10677429;27;20086;-77
2024/01/25 18:19:57;;;;;;;3.05;1.00;;;;;;;5.95;79.65;150165.06;10674973;27;20056;-76
2024/01/25 18:25:00;;;;;;;10.95;1.38;;;;;;;6.03;79.47;150186.94;10675608;27;20038;-75
2024/01/25 18:30:03;;;;;;;6.88;1.42;;;;;;;5.88;80.35;150148.28;10672259;27;20095;-75
2024/01/25 18:35:05;;;;;;;3.60;1.17;;;;;;;5.73;81.03;150110.97;10674053;27;20066;-76
2024/01/25 18:40:08;;;;;;;5.93;1.65;;;;;;;5.74;81.75;150113.53;10636788;27;20038;-76
2024/01/25 18:45:13;;;;;;;3.05;1.00;;;;;;;5.79;81.29;150126.41;10677085;27;20043;-74
2024/01/25 18:50:15;;;;;;;6.90;1.17;;;;;;;5.93;80.42;150159.91;10674069;27;20064;-77
2024/01/25 18:55:17;;;;;;;6.72;1.50;;;;;;;5.92;80.48;150158.63;10655722;27;20061;-75
2024/01/25 19:00:26;;;;;;;9.80;1.17;;;;;;;5.94;80.53;150163.78;10660794;27;20454;-77
2024/01/25 19:05:29;;;;;;;4.35;0.80;;;;;;;5.91;80.83;150156.00;10643115;27;20043;-75
2024/01/25 19:10:31;;;;;;;4.30;1.15;;;;;;;5.91;80.80;150156.00;10679211;27;20116;-76
2024/01/25 19:15:33;;;;;;;4.68;0.95;;;;;;;5.96;80.32;150167.63;10660028;27;20108;-76
2024/01/25 19:20:36;;;;;;;2.78;1.13;;;;;;;6.01;80.04;150181.75;10660112;27;20137;-76
2024/01/25 19:25:38;;;;;;;7.03;1.55;;;;;;;5.98;80.10;150172.78;10659856;27;20046;-75
2024/01/25 19:30:40;;;;;;;6.63;1.35;;;;;;;5.88;80.56;150147.00;10674902;27;20076;-76
2024/01/25 19:35:48;;;;;;;11.45;1.33;;;;;;;5.95;80.50;150166.34;10654521;27;20099;-76
2024/01/25 19:40:54;;;;;;;3.38;1.88;;;;;;;5.88;80.30;150147.00;10657024;27;20067;-76
2024/01/25 19:45:57;;;;;;;4.20;1.15;;;;;;;5.84;80.84;150137.97;10655165;27;20042;-75
2024/01/25 19:50:58;;;;;;;3.03;0.85;;;;;;;5.90;79.97;150153.44;10673091;27;20486;-74
2024/01/25 19:56:01;;;;;;;4.22;1.38;;;;;;;5.90;80.80;150152.16;10673466;27;20027;-76
2024/01/25 20:01:03;;;;;;;3.03;1.30;;;;;;;5.91;80.14;150156.00;10671731;27;20045;-74
2024/01/25 20:06:14;;;;;;;3.35;0.98;;;;;;;5.82;81.28;150132.84;10672909;27;20425;-75
2024/01/25 20:11:16;;;;;;;3.05;1.17;;;;;;;6.02;79.71;150184.38;10654738;27;20047;-76
2024/01/25 20:16:18;;;;;;;3.78;1.10;;;;;;;5.81;81.13;150131.56;10672390;27;20042;-76
2024/01/25 20:21:21;;;;;;;7.47;2.08;;;;;;;5.85;81.16;150140.59;10671230;27;20042;-76
2024/01/25 20:26:23;;;;;;;5.22;1.33;;;;;;;5.82;82.16;150132.84;10680631;27;20039;-76
2024/01/25 20:31:25;;;;;;;3.17;1.30;;;;;;;5.79;82.36;150125.13;10679059;27;20095;-76
2024/01/25 20:36:27;;;;;;;5.07;1.02;;;;;;;5.53;83.80;150059.50;10678955;27;20046;-76
2024/01/25 20:41:29;;;;;;;6.22;1.38;;;;;;;5.69;83.01;150100.69;10659799;27;20050;-76
2024/01/25 20:46:32;;;;;;;2.55;1.15;;;;;;;5.70;82.94;150101.97;10678519;27;20095;-76
2024/01/25 20:51:34;;;;;;;3.65;1.50;;;;;;;5.55;83.61;150064.69;10680090;27;20047;-75
2024/01/25 20:56:36;;;;;;;3.67;1.17;;;;;;;5.56;83.73;150067.25;10677736;27;20068;-77
2024/01/25 21:01:38;;;;;;;7.78;1.50;;;;;;;5.45;84.82;150038.97;10677724;27;20095;-76
2024/01/25 21:06:40;;;;;;;11.63;1.83;;;;;;;5.45;84.69;150040.25;10678263;27;20042;-76
2024/01/25 21:11:43;;;;;;;4.63;1.40;;;;;;;5.45;84.10;150038.97;10677387;27;20107;-75
2024/01/25 21:16:45;;;;;;;7.07;1.17;;;;;;;5.44;84.50;150036.38;10658569;27;20039;-76
2024/01/25 21:21:46;;;;;;;2.55;1.30;;;;;;;5.28;85.18;149996.53;10677599;27;20079;-74
2024/01/25 21:26:48;;;;;;;4.95;1.10;;;;;;;5.39;84.79;150024.78;10677295;27;20555;-75
2024/01/25 21:31:50;;;;;;;4.63;1.50;;;;;;;5.25;85.50;149990.09;10657209;27;20068;-75
2024/01/25 21:36:52;;;;;;;3.15;1.30;;;;;;;5.41;84.06;150029.97;10673923;27;20039;-76
2024/01/25 21:41:54;;;;;;;7.82;1.35;;;;;;;5.43;83.61;150035.09;10657432;27;20081;-76
2024/01/25 21:46:56;;;;;;;4.10;1.80;;;;;;;5.41;83.48;150029.97;10676667;27;20042;-74
2024/01/25 21:52:00;;;;;;;5.65;2.10;;;;;;;5.30;83.95;150002.94;10675030;27;20047;-76
2024/01/25 21:57:03;;;;;;;3.83;1.60;;;;;;;5.37;83.13;150019.69;10656958;27;20041;-76
2024/01/25 22:02:05;;;;;;;4.55;1.30;;;;;;;5.32;83.57;150008.09;10674824;27;20115;-75
2024/01/25 22:07:07;;;;;;;5.53;1.50;;;;;;;5.21;84.46;149978.50;10676492;27;20428;-75
2024/01/25 22:12:09;;;;;;;2.45;1.23;;;;;;;5.11;85.03;149954.09;10676038;27;20034;-75
2024/01/25 22:17:11;;;;;;;4.55;1.52;;;;;;;5.34;83.65;150011.94;10675690;27;20046;-75
2024/01/25 22:22:13;;;;;;;5.82;1.70;;;;;;;5.24;84.38;149986.25;10657063;27;20046;-75
2024/01/25 22:27:15;;;;;;;4.03;1.40;;;;;;;5.13;84.86;149957.94;10675416;27;20039;-74
2024/01/25 22:32:17;;;;;;;5.00;1.98;;;;;;;5.22;83.99;149982.41;10656857;27;20043;-74
2024/01/25 22:37:19;;;;;;;8.55;1.77;;;;;;;5.12;84.32;149955.38;10676000;27;20054;-75
2024/01/25 22:42:20;;;;;;;6.40;2.40;;;;;;;5.18;83.63;149970.78;10673239;27;20039;-75
2024/01/25 22:47:22;;;;;;;5.38;1.77;;;;;;;5.21;83.33;149979.78;10673490;27;20038;-75
2024/01/25 22:52:24;;;;;;;4.55;1.77;;;;;;;5.15;83.15;149963.09;10672671;27;20066;-75
2024/01/25 22:57:26;;;;;;;5.35;1.77;;;;;;;5.14;82.91;149961.81;10673168;27;20031;-75
2024/01/25 23:02:28;;;;;;;5.97;1.80;;;;;;;5.16;82.63;149965.66;10651770;27;20509;-74
2024/01/25 23:07:30;;;;;;;5.85;2.40;;;;;;;5.03;82.99;149934.78;10671074;27;20038;-75
2024/01/25 23:12:31;;;;;;;8.27;2.03;;;;;;;4.98;82.51;149921.94;10652963;27;20043;-75
2024/01/25 23:17:34;;;;;;;6.43;1.77;;;;;;;4.89;82.75;149898.81;10671084;27;20143;-75
2024/01/25 23:22:36;;;;;;;7.65;2.22;;;;;;;4.90;82.25;149900.09;10652529;27;20030;-74